sensor_id;sensor_type;location;lat;lon;timestamp;P1;durP1;ratioP1;P2;durP2;ratioP2
70558;SDS011;58108;48.094;11.838;2024-02-26T00:00:09;5.90;;;1.70;;
70558;SDS011;58108;48.094;11.838;2024-02-26T00:02:36;5.25;;;2.13;;
70558;SDS011;58108;48.094;11.838;2024-02-26T00:05:07;5.60;;;1.77;;
70558;SDS011;58108;48.094;11.838;2024-02-26T00:07:33;6.55;;;2.40;;
70558;SDS011;58108;48.094;11.838;2024-02-26T00:09:59;7.10;;;1.57;;
70558;SDS011;58108;48.094;11.838;2024-02-26T00:12:24;5.93;;;1.70;;
70558;SDS011;58108;48.094;11.838;2024-02-26T00:14:50;8.38;;;2.15;;
70558;SDS011;58108;48.094;11.838;2024-02-26T00:17:17;7.47;;;1.85;;
70558;SDS011;58108;48.094;11.838;2024-02-26T00:19:43;9.53;;;2.27;;
70558;SDS011;58108;48.094;11.838;2024-02-26T00:22:09;6.53;;;2.20;;
70558;SDS011;58108;48.094;11.838;2024-02-26T00:24:34;3.38;;;1.13;;
70558;SDS011;58108;48.094;11.838;2024-02-26T00:26:59;6.40;;;1.37;;
70558;SDS011;58108;48.094;11.838;2024-02-26T00:29:25;5.17;;;1.57;;
70558;SDS011;58108;48.094;11.838;2024-02-26T00:31:51;5.95;;;1.83;;
70558;SDS011;58108;48.094;11.838;2024-02-26T00:34:16;5.60;;;1.80;;
70558;SDS011;58108;48.094;11.838;2024-02-26T00:36:42;6.40;;;1.63;;
70558;SDS011;58108;48.094;11.838;2024-02-26T00:39:08;6.35;;;1.63;;
70558;SDS011;58108;48.094;11.838;2024-02-26T00:41:37;5.63;;;1.83;;
70558;SDS011;58108;48.094;11.838;2024-02-26T00:44:03;4.80;;;1.40;;
70558;SDS011;58108;48.094;11.838;2024-02-26T00:46:29;5.85;;;1.58;;
70558;SDS011;58108;48.094;11.838;2024-02-26T00:48:54;4.43;;;1.45;;
70558;SDS011;58108;48.094;11.838;2024-02-26T00:51:20;5.77;;;1.90;;
70558;SDS011;58108;48.094;11.838;2024-02-26T00:53:45;4.83;;;1.20;;
70558;SDS011;58108;48.094;11.838;2024-02-26T00:56:11;4.67;;;1.70;;
70558;SDS011;58108;48.094;11.838;2024-02-26T00:58:36;4.65;;;1.63;;
70558;SDS011;58108;48.094;11.838;2024-02-26T01:01:02;4.70;;;1.43;;
70558;SDS011;58108;48.094;11.838;2024-02-26T01:03:28;5.40;;;1.25;;
70558;SDS011;58108;48.094;11.838;2024-02-26T01:05:54;4.68;;;1.42;;
70558;SDS011;58108;48.094;11.838;2024-02-26T01:08:19;3.45;;;1.20;;
70558;SDS011;58108;48.094;11.838;2024-02-26T01:10:45;4.57;;;1.30;;
70558;SDS011;58108;48.094;11.838;2024-02-26T01:13:10;4.77;;;1.60;;
70558;SDS011;58108;48.094;11.838;2024-02-26T01:15:36;3.92;;;1.25;;
70558;SDS011;58108;48.094;11.838;2024-02-26T01:18:01;5.13;;;1.30;;
70558;SDS011;58108;48.094;11.838;2024-02-26T01:20:27;4.93;;;0.93;;
70558;SDS011;58108;48.094;11.838;2024-02-26T01:22:52;4.50;;;1.20;;
70558;SDS011;58108;48.094;11.838;2024-02-26T01:25:18;3.67;;;1.23;;
70558;SDS011;58108;48.094;11.838;2024-02-26T01:27:43;3.83;;;1.10;;
70558;SDS011;58108;48.094;11.838;2024-02-26T01:30:09;3.50;;;0.90;;
70558;SDS011;58108;48.094;11.838;2024-02-26T01:32:35;3.75;;;0.75;;
70558;SDS011;58108;48.094;11.838;2024-02-26T01:35:01;4.97;;;1.10;;
70558;SDS011;58108;48.094;11.838;2024-02-26T01:37:32;3.88;;;1.10;;
70558;SDS011;58108;48.094;11.838;2024-02-26T01:39:58;4.00;;;0.90;;
70558;SDS011;58108;48.094;11.838;2024-02-26T01:42:23;3.80;;;1.00;;
70558;SDS011;58108;48.094;11.838;2024-02-26T01:44:49;2.90;;;0.70;;
70558;SDS011;58108;48.094;11.838;2024-02-26T01:47:14;2.73;;;0.60;;
70558;SDS011;58108;48.094;11.838;2024-02-26T01:49:40;3.25;;;0.63;;
70558;SDS011;58108;48.094;11.838;2024-02-26T01:52:06;2.30;;;0.50;;
70558;SDS011;58108;48.094;11.838;2024-02-26T01:54:34;3.03;;;0.60;;
70558;SDS011;58108;48.094;11.838;2024-02-26T01:57:02;2.70;;;0.70;;
70558;SDS011;58108;48.094;11.838;2024-02-26T01:59:29;3.22;;;0.70;;
70558;SDS011;58108;48.094;11.838;2024-02-26T02:01:55;3.03;;;0.47;;
70558;SDS011;58108;48.094;11.838;2024-02-26T02:04:24;3.17;;;0.80;;
70558;SDS011;58108;48.094;11.838;2024-02-26T02:06:50;3.60;;;0.82;;
70558;SDS011;58108;48.094;11.838;2024-02-26T02:09:17;3.30;;;0.90;;
70558;SDS011;58108;48.094;11.838;2024-02-26T02:11:43;4.10;;;0.70;;
70558;SDS011;58108;48.094;11.838;2024-02-26T02:14:09;3.53;;;0.77;;
70558;SDS011;58108;48.094;11.838;2024-02-26T02:16:35;3.13;;;0.70;;
70558;SDS011;58108;48.094;11.838;2024-02-26T02:19:01;2.83;;;0.50;;
70558;SDS011;58108;48.094;11.838;2024-02-26T02:21:26;2.73;;;0.63;;
70558;SDS011;58108;48.094;11.838;2024-02-26T02:23:52;2.92;;;0.60;;
70558;SDS011;58108;48.094;11.838;2024-02-26T02:26:17;3.77;;;0.80;;
70558;SDS011;58108;48.094;11.838;2024-02-26T02:28:43;3.92;;;0.70;;
70558;SDS011;58108;48.094;11.838;2024-02-26T02:31:11;2.97;;;0.50;;
70558;SDS011;58108;48.094;11.838;2024-02-26T02:33:37;2.57;;;0.60;;
70558;SDS011;58108;48.094;11.838;2024-02-26T02:36:03;3.13;;;0.77;;
70558;SDS011;58108;48.094;11.838;2024-02-26T02:38:29;3.60;;;0.65;;
70558;SDS011;58108;48.094;11.838;2024-02-26T02:40:55;2.78;;;0.63;;
70558;SDS011;58108;48.094;11.838;2024-02-26T02:43:21;3.67;;;0.70;;
70558;SDS011;58108;48.094;11.838;2024-02-26T02:45:47;3.33;;;0.60;;
70558;SDS011;58108;48.094;11.838;2024-02-26T02:48:12;3.57;;;0.50;;
70558;SDS011;58108;48.094;11.838;2024-02-26T02:50:38;2.67;;;0.40;;
70558;SDS011;58108;48.094;11.838;2024-02-26T02:53:03;3.53;;;0.57;;
70558;SDS011;58108;48.094;11.838;2024-02-26T02:55:29;2.03;;;0.40;;
70558;SDS011;58108;48.094;11.838;2024-02-26T02:57:54;2.73;;;0.37;;
70558;SDS011;58108;48.094;11.838;2024-02-26T03:00:20;2.72;;;0.40;;
70558;SDS011;58108;48.094;11.838;2024-02-26T03:02:48;1.97;;;0.30;;
70558;SDS011;58108;48.094;11.838;2024-02-26T03:05:14;4.25;;;0.50;;
70558;SDS011;58108;48.094;11.838;2024-02-26T03:07:40;2.30;;;0.45;;
70558;SDS011;58108;48.094;11.838;2024-02-26T03:10:05;2.60;;;0.53;;
70558;SDS011;58108;48.094;11.838;2024-02-26T03:12:33;2.80;;;0.60;;
70558;SDS011;58108;48.094;11.838;2024-02-26T03:14:59;2.45;;;0.40;;
70558;SDS011;58108;48.094;11.838;2024-02-26T03:17:28;4.43;;;0.77;;
70558;SDS011;58108;48.094;11.838;2024-02-26T03:19:54;2.92;;;0.57;;
70558;SDS011;58108;48.094;11.838;2024-02-26T03:22:20;2.15;;;0.43;;
70558;SDS011;58108;48.094;11.838;2024-02-26T03:24:46;2.83;;;0.50;;
70558;SDS011;58108;48.094;11.838;2024-02-26T03:27:12;2.85;;;0.50;;
70558;SDS011;58108;48.094;11.838;2024-02-26T03:29:37;3.53;;;1.00;;
70558;SDS011;58108;48.094;11.838;2024-02-26T03:32:03;2.43;;;0.50;;
70558;SDS011;58108;48.094;11.838;2024-02-26T03:34:30;2.33;;;0.50;;
70558;SDS011;58108;48.094;11.838;2024-02-26T03:36:56;3.38;;;0.60;;
70558;SDS011;58108;48.094;11.838;2024-02-26T03:39:21;3.58;;;0.70;;
70558;SDS011;58108;48.094;11.838;2024-02-26T03:41:48;2.77;;;0.60;;
70558;SDS011;58108;48.094;11.838;2024-02-26T03:44:13;3.30;;;0.90;;
70558;SDS011;58108;48.094;11.838;2024-02-26T03:46:40;3.42;;;0.80;;
70558;SDS011;58108;48.094;11.838;2024-02-26T03:49:08;4.00;;;0.90;;
70558;SDS011;58108;48.094;11.838;2024-02-26T03:51:33;4.85;;;1.02;;
70558;SDS011;58108;48.094;11.838;2024-02-26T03:53:59;3.50;;;1.05;;
70558;SDS011;58108;48.094;11.838;2024-02-26T03:56:25;3.15;;;0.90;;
70558;SDS011;58108;48.094;11.838;2024-02-26T03:58:52;3.63;;;0.80;;
70558;SDS011;58108;48.094;11.838;2024-02-26T04:01:17;4.30;;;1.13;;
70558;SDS011;58108;48.094;11.838;2024-02-26T04:03:43;5.93;;;1.40;;
70558;SDS011;58108;48.094;11.838;2024-02-26T04:06:09;4.97;;;0.98;;
70558;SDS011;58108;48.094;11.838;2024-02-26T04:08:39;3.70;;;1.10;;
70558;SDS011;58108;48.094;11.838;2024-02-26T04:11:06;4.60;;;1.25;;
70558;SDS011;58108;48.094;11.838;2024-02-26T04:13:36;3.45;;;1.00;;
70558;SDS011;58108;48.094;11.838;2024-02-26T04:16:06;3.42;;;0.80;;
70558;SDS011;58108;48.094;11.838;2024-02-26T04:18:32;5.07;;;1.17;;
70558;SDS011;58108;48.094;11.838;2024-02-26T04:20:58;4.17;;;1.07;;
70558;SDS011;58108;48.094;11.838;2024-02-26T04:23:24;3.90;;;0.90;;
70558;SDS011;58108;48.094;11.838;2024-02-26T04:25:50;3.78;;;0.95;;
70558;SDS011;58108;48.094;11.838;2024-02-26T04:28:16;5.50;;;1.33;;
70558;SDS011;58108;48.094;11.838;2024-02-26T04:30:41;4.68;;;1.10;;
70558;SDS011;58108;48.094;11.838;2024-02-26T04:33:07;5.70;;;1.20;;
70558;SDS011;58108;48.094;11.838;2024-02-26T04:35:32;4.57;;;1.17;;
70558;SDS011;58108;48.094;11.838;2024-02-26T04:38:00;4.68;;;1.35;;
70558;SDS011;58108;48.094;11.838;2024-02-26T04:40:26;4.65;;;1.40;;
70558;SDS011;58108;48.094;11.838;2024-02-26T04:42:51;3.73;;;1.00;;
70558;SDS011;58108;48.094;11.838;2024-02-26T04:45:17;3.03;;;0.90;;
70558;SDS011;58108;48.094;11.838;2024-02-26T04:47:42;3.80;;;1.10;;
70558;SDS011;58108;48.094;11.838;2024-02-26T04:50:08;4.13;;;1.10;;
70558;SDS011;58108;48.094;11.838;2024-02-26T04:52:34;4.40;;;1.55;;
70558;SDS011;58108;48.094;11.838;2024-02-26T04:54:59;4.00;;;1.33;;
70558;SDS011;58108;48.094;11.838;2024-02-26T04:57:25;4.23;;;1.10;;
70558;SDS011;58108;48.094;11.838;2024-02-26T04:59:51;6.53;;;1.40;;
70558;SDS011;58108;48.094;11.838;2024-02-26T05:02:17;4.05;;;1.13;;
70558;SDS011;58108;48.094;11.838;2024-02-26T05:04:43;5.00;;;1.47;;
70558;SDS011;58108;48.094;11.838;2024-02-26T05:07:09;4.15;;;1.00;;
70558;SDS011;58108;48.094;11.838;2024-02-26T05:09:34;4.82;;;1.10;;
70558;SDS011;58108;48.094;11.838;2024-02-26T05:12:00;4.20;;;1.13;;
70558;SDS011;58108;48.094;11.838;2024-02-26T05:14:26;3.72;;;1.25;;
70558;SDS011;58108;48.094;11.838;2024-02-26T05:16:51;5.38;;;1.20;;
70558;SDS011;58108;48.094;11.838;2024-02-26T05:19:17;5.50;;;1.20;;
70558;SDS011;58108;48.094;11.838;2024-02-26T05:21:42;4.73;;;0.97;;
70558;SDS011;58108;48.094;11.838;2024-02-26T05:24:09;5.43;;;1.45;;
70558;SDS011;58108;48.094;11.838;2024-02-26T05:26:35;3.83;;;0.98;;
70558;SDS011;58108;48.094;11.838;2024-02-26T05:29:01;3.83;;;1.00;;
70558;SDS011;58108;48.094;11.838;2024-02-26T05:31:27;4.00;;;1.30;;
70558;SDS011;58108;48.094;11.838;2024-02-26T05:33:54;4.35;;;1.20;;
70558;SDS011;58108;48.094;11.838;2024-02-26T05:36:23;4.50;;;1.23;;
70558;SDS011;58108;48.094;11.838;2024-02-26T05:38:49;5.28;;;1.50;;
70558;SDS011;58108;48.094;11.838;2024-02-26T05:41:15;4.25;;;1.48;;
70558;SDS011;58108;48.094;11.838;2024-02-26T05:43:41;4.53;;;1.70;;
70558;SDS011;58108;48.094;11.838;2024-02-26T05:46:07;4.63;;;1.20;;
70558;SDS011;58108;48.094;11.838;2024-02-26T05:48:33;4.15;;;1.08;;
70558;SDS011;58108;48.094;11.838;2024-02-26T05:50:59;4.83;;;1.40;;
70558;SDS011;58108;48.094;11.838;2024-02-26T05:53:24;3.88;;;1.33;;
70558;SDS011;58108;48.094;11.838;2024-02-26T05:55:50;4.73;;;1.30;;
70558;SDS011;58108;48.094;11.838;2024-02-26T05:58:16;5.07;;;1.38;;
70558;SDS011;58108;48.094;11.838;2024-02-26T06:00:42;4.53;;;1.10;;
70558;SDS011;58108;48.094;11.838;2024-02-26T06:03:07;4.88;;;1.35;;
70558;SDS011;58108;48.094;11.838;2024-02-26T06:05:33;5.77;;;1.90;;
70558;SDS011;58108;48.094;11.838;2024-02-26T06:07:59;4.93;;;1.80;;
70558;SDS011;58108;48.094;11.838;2024-02-26T06:10:25;3.65;;;1.40;;
70558;SDS011;58108;48.094;11.838;2024-02-26T06:12:51;3.60;;;1.10;;
70558;SDS011;58108;48.094;11.838;2024-02-26T06:15:16;5.53;;;1.40;;
70558;SDS011;58108;48.094;11.838;2024-02-26T06:17:42;4.43;;;1.30;;
70558;SDS011;58108;48.094;11.838;2024-02-26T06:20:07;4.97;;;1.40;;
70558;SDS011;58108;48.094;11.838;2024-02-26T06:22:38;5.28;;;1.30;;
70558;SDS011;58108;48.094;11.838;2024-02-26T06:25:05;4.90;;;1.60;;
70558;SDS011;58108;48.094;11.838;2024-02-26T06:27:31;3.30;;;1.03;;
70558;SDS011;58108;48.094;11.838;2024-02-26T06:29:56;5.80;;;1.55;;
70558;SDS011;58108;48.094;11.838;2024-02-26T06:32:22;5.90;;;1.50;;
70558;SDS011;58108;48.094;11.838;2024-02-26T06:34:48;3.93;;;1.20;;
70558;SDS011;58108;48.094;11.838;2024-02-26T06:37:13;4.57;;;1.27;;
70558;SDS011;58108;48.094;11.838;2024-02-26T06:39:39;6.03;;;1.20;;
70558;SDS011;58108;48.094;11.838;2024-02-26T06:42:05;4.00;;;1.20;;
70558;SDS011;58108;48.094;11.838;2024-02-26T06:44:30;2.35;;;0.68;;
70558;SDS011;58108;48.094;11.838;2024-02-26T06:46:59;3.78;;;1.15;;
70558;SDS011;58108;48.094;11.838;2024-02-26T06:49:25;2.25;;;0.70;;
70558;SDS011;58108;48.094;11.838;2024-02-26T06:51:51;6.50;;;2.27;;
70558;SDS011;58108;48.094;11.838;2024-02-26T06:54:17;4.50;;;1.10;;
70558;SDS011;58108;48.094;11.838;2024-02-26T06:56:42;2.50;;;0.63;;
70558;SDS011;58108;48.094;11.838;2024-02-26T06:59:08;4.03;;;1.05;;
70558;SDS011;58108;48.094;11.838;2024-02-26T07:01:34;2.30;;;0.60;;
70558;SDS011;58108;48.094;11.838;2024-02-26T07:03:59;2.90;;;0.73;;
70558;SDS011;58108;48.094;11.838;2024-02-26T07:06:26;3.92;;;1.10;;
70558;SDS011;58108;48.094;11.838;2024-02-26T07:08:52;3.35;;;0.80;;
70558;SDS011;58108;48.094;11.838;2024-02-26T07:11:18;4.28;;;1.00;;
70558;SDS011;58108;48.094;11.838;2024-02-26T07:13:47;3.40;;;0.90;;
70558;SDS011;58108;48.094;11.838;2024-02-26T07:16:14;3.10;;;0.90;;
70558;SDS011;58108;48.094;11.838;2024-02-26T07:18:40;3.20;;;0.80;;
70558;SDS011;58108;48.094;11.838;2024-02-26T07:21:06;4.07;;;1.08;;
70558;SDS011;58108;48.094;11.838;2024-02-26T07:23:32;3.20;;;0.83;;
70558;SDS011;58108;48.094;11.838;2024-02-26T07:25:57;3.40;;;0.90;;
70558;SDS011;58108;48.094;11.838;2024-02-26T07:28:24;3.15;;;0.90;;
70558;SDS011;58108;48.094;11.838;2024-02-26T07:30:50;3.60;;;0.98;;
70558;SDS011;58108;48.094;11.838;2024-02-26T07:33:15;3.07;;;0.80;;
70558;SDS011;58108;48.094;11.838;2024-02-26T07:35:41;3.00;;;0.80;;
70558;SDS011;58108;48.094;11.838;2024-02-26T07:38:06;3.83;;;0.95;;
70558;SDS011;58108;48.094;11.838;2024-02-26T07:40:32;4.67;;;0.90;;
70558;SDS011;58108;48.094;11.838;2024-02-26T07:42:57;3.03;;;0.80;;
70558;SDS011;58108;48.094;11.838;2024-02-26T07:45:23;2.97;;;0.90;;
70558;SDS011;58108;48.094;11.838;2024-02-26T07:47:48;3.00;;;0.83;;
70558;SDS011;58108;48.094;11.838;2024-02-26T07:50:16;2.65;;;0.50;;
70558;SDS011;58108;48.094;11.838;2024-02-26T07:52:41;2.77;;;0.60;;
70558;SDS011;58108;48.094;11.838;2024-02-26T07:55:07;3.03;;;0.80;;
70558;SDS011;58108;48.094;11.838;2024-02-26T07:57:33;3.70;;;0.60;;
70558;SDS011;58108;48.094;11.838;2024-02-26T08:00:02;2.80;;;0.70;;
70558;SDS011;58108;48.094;11.838;2024-02-26T08:02:30;2.70;;;0.67;;
70558;SDS011;58108;48.094;11.838;2024-02-26T08:04:55;3.08;;;0.60;;
70558;SDS011;58108;48.094;11.838;2024-02-26T08:07:20;2.57;;;0.50;;
70558;SDS011;58108;48.094;11.838;2024-02-26T08:09:46;3.20;;;0.80;;
70558;SDS011;58108;48.094;11.838;2024-02-26T08:12:12;2.75;;;0.70;;
70558;SDS011;58108;48.094;11.838;2024-02-26T08:14:38;3.40;;;0.80;;
70558;SDS011;58108;48.094;11.838;2024-02-26T08:17:03;3.85;;;0.90;;
70558;SDS011;58108;48.094;11.838;2024-02-26T08:19:29;3.90;;;1.17;;
70558;SDS011;58108;48.094;11.838;2024-02-26T08:21:54;3.37;;;0.70;;
70558;SDS011;58108;48.094;11.838;2024-02-26T08:24:20;2.75;;;0.80;;
70558;SDS011;58108;48.094;11.838;2024-02-26T08:26:46;4.70;;;1.40;;
70558;SDS011;58108;48.094;11.838;2024-02-26T08:29:11;2.95;;;0.90;;
70558;SDS011;58108;48.094;11.838;2024-02-26T08:31:37;2.50;;;0.73;;
70558;SDS011;58108;48.094;11.838;2024-02-26T08:34:03;3.80;;;1.00;;
70558;SDS011;58108;48.094;11.838;2024-02-26T08:36:29;2.92;;;0.93;;
70558;SDS011;58108;48.094;11.838;2024-02-26T08:38:58;3.08;;;0.70;;
70558;SDS011;58108;48.094;11.838;2024-02-26T08:41:24;1.80;;;0.40;;
70558;SDS011;58108;48.094;11.838;2024-02-26T08:43:49;2.63;;;0.50;;
70558;SDS011;58108;48.094;11.838;2024-02-26T08:46:15;3.15;;;0.60;;
70558;SDS011;58108;48.094;11.838;2024-02-26T08:48:40;6.07;;;0.97;;
70558;SDS011;58108;48.094;11.838;2024-02-26T08:51:06;4.33;;;0.70;;
70558;SDS011;58108;48.094;11.838;2024-02-26T08:53:33;2.30;;;0.40;;
70558;SDS011;58108;48.094;11.838;2024-02-26T08:55:59;2.47;;;0.50;;
70558;SDS011;58108;48.094;11.838;2024-02-26T08:58:24;4.23;;;1.00;;
70558;SDS011;58108;48.094;11.838;2024-02-26T09:00:51;3.25;;;1.08;;
70558;SDS011;58108;48.094;11.838;2024-02-26T09:03:17;3.70;;;1.00;;
70558;SDS011;58108;48.094;11.838;2024-02-26T09:05:42;2.53;;;0.70;;
70558;SDS011;58108;48.094;11.838;2024-02-26T09:08:08;3.47;;;0.55;;
70558;SDS011;58108;48.094;11.838;2024-02-26T09:10:34;2.63;;;0.60;;
70558;SDS011;58108;48.094;11.838;2024-02-26T09:12:59;3.10;;;0.50;;
70558;SDS011;58108;48.094;11.838;2024-02-26T09:15:25;3.40;;;0.70;;
70558;SDS011;58108;48.094;11.838;2024-02-26T09:17:50;3.40;;;0.70;;
70558;SDS011;58108;48.094;11.838;2024-02-26T09:20:17;3.20;;;1.10;;
70558;SDS011;58108;48.094;11.838;2024-02-26T09:22:47;3.47;;;0.90;;
70558;SDS011;58108;48.094;11.838;2024-02-26T09:25:13;3.97;;;1.00;;
70558;SDS011;58108;48.094;11.838;2024-02-26T09:27:41;2.63;;;0.70;;
70558;SDS011;58108;48.094;11.838;2024-02-26T09:30:09;2.90;;;0.60;;
70558;SDS011;58108;48.094;11.838;2024-02-26T09:32:38;2.92;;;0.70;;
70558;SDS011;58108;48.094;11.838;2024-02-26T09:35:07;3.42;;;0.88;;
70558;SDS011;58108;48.094;11.838;2024-02-26T09:37:33;2.50;;;0.63;;
70558;SDS011;58108;48.094;11.838;2024-02-26T09:39:59;3.77;;;0.80;;
70558;SDS011;58108;48.094;11.838;2024-02-26T09:42:27;2.75;;;0.80;;
70558;SDS011;58108;48.094;11.838;2024-02-26T09:44:56;3.17;;;0.88;;
70558;SDS011;58108;48.094;11.838;2024-02-26T09:47:31;3.33;;;0.90;;
70558;SDS011;58108;48.094;11.838;2024-02-26T09:49:58;3.38;;;1.00;;
70558;SDS011;58108;48.094;11.838;2024-02-26T09:52:27;2.95;;;0.95;;
70558;SDS011;58108;48.094;11.838;2024-02-26T09:54:56;2.72;;;0.73;;
70558;SDS011;58108;48.094;11.838;2024-02-26T09:57:22;3.53;;;0.70;;
70558;SDS011;58108;48.094;11.838;2024-02-26T09:59:50;2.47;;;0.80;;
70558;SDS011;58108;48.094;11.838;2024-02-26T10:02:18;2.97;;;0.95;;
70558;SDS011;58108;48.094;11.838;2024-02-26T10:04:45;3.92;;;0.70;;
70558;SDS011;58108;48.094;11.838;2024-02-26T10:07:13;3.13;;;0.75;;
70558;SDS011;58108;48.094;11.838;2024-02-26T10:09:39;6.65;;;1.00;;
70558;SDS011;58108;48.094;11.838;2024-02-26T10:12:06;2.75;;;0.60;;
70558;SDS011;58108;48.094;11.838;2024-02-26T10:14:33;2.75;;;0.98;;
70558;SDS011;58108;48.094;11.838;2024-02-26T10:16:59;4.43;;;1.00;;
70558;SDS011;58108;48.094;11.838;2024-02-26T10:19:28;2.70;;;0.70;;
70558;SDS011;58108;48.094;11.838;2024-02-26T10:21:59;3.40;;;0.90;;
70558;SDS011;58108;48.094;11.838;2024-02-26T10:24:29;3.13;;;0.70;;
70558;SDS011;58108;48.094;11.838;2024-02-26T10:26:55;3.58;;;1.02;;
70558;SDS011;58108;48.094;11.838;2024-02-26T10:29:23;5.07;;;1.53;;
70558;SDS011;58108;48.094;11.838;2024-02-26T10:31:53;4.00;;;1.40;;
70558;SDS011;58108;48.094;11.838;2024-02-26T10:34:19;4.85;;;1.13;;
70558;SDS011;58108;48.094;11.838;2024-02-26T10:36:45;3.50;;;0.70;;
70558;SDS011;58108;48.094;11.838;2024-02-26T10:39:11;3.70;;;1.00;;
70558;SDS011;58108;48.094;11.838;2024-02-26T10:41:40;3.20;;;0.70;;
70558;SDS011;58108;48.094;11.838;2024-02-26T10:44:08;3.42;;;0.90;;
70558;SDS011;58108;48.094;11.838;2024-02-26T10:46:36;2.92;;;0.80;;
70558;SDS011;58108;48.094;11.838;2024-02-26T10:49:02;3.17;;;1.00;;
70558;SDS011;58108;48.094;11.838;2024-02-26T10:51:29;3.20;;;1.33;;
70558;SDS011;58108;48.094;11.838;2024-02-26T10:53:56;3.20;;;0.90;;
70558;SDS011;58108;48.094;11.838;2024-02-26T10:56:24;3.53;;;1.10;;
70558;SDS011;58108;48.094;11.838;2024-02-26T10:58:52;2.85;;;0.90;;
70558;SDS011;58108;48.094;11.838;2024-02-26T11:01:18;2.90;;;0.63;;
70558;SDS011;58108;48.094;11.838;2024-02-26T11:03:47;2.83;;;0.75;;
70558;SDS011;58108;48.094;11.838;2024-02-26T11:06:15;3.13;;;0.60;;
70558;SDS011;58108;48.094;11.838;2024-02-26T11:08:41;2.35;;;0.40;;
70558;SDS011;58108;48.094;11.838;2024-02-26T11:11:07;2.78;;;0.70;;
70558;SDS011;58108;48.094;11.838;2024-02-26T11:13:33;2.03;;;0.50;;
70558;SDS011;58108;48.094;11.838;2024-02-26T11:15:59;2.50;;;0.50;;
70558;SDS011;58108;48.094;11.838;2024-02-26T11:18:29;2.17;;;0.50;;
70558;SDS011;58108;48.094;11.838;2024-02-26T11:20:55;1.77;;;0.45;;
70558;SDS011;58108;48.094;11.838;2024-02-26T11:23:22;2.20;;;0.40;;
70558;SDS011;58108;48.094;11.838;2024-02-26T11:25:49;3.67;;;0.90;;
70558;SDS011;58108;48.094;11.838;2024-02-26T11:28:20;1.90;;;0.40;;
70558;SDS011;58108;48.094;11.838;2024-02-26T11:30:49;10.40;;;0.88;;
70558;SDS011;58108;48.094;11.838;2024-02-26T11:33:15;2.40;;;0.50;;
70558;SDS011;58108;48.094;11.838;2024-02-26T11:35:41;1.70;;;0.50;;
70558;SDS011;58108;48.094;11.838;2024-02-26T11:38:07;2.30;;;0.47;;
70558;SDS011;58108;48.094;11.838;2024-02-26T11:40:33;2.53;;;0.40;;
70558;SDS011;58108;48.094;11.838;2024-02-26T11:43:04;2.20;;;0.40;;
70558;SDS011;58108;48.094;11.838;2024-02-26T11:48:04;2.00;;;0.30;;
70558;SDS011;58108;48.094;11.838;2024-02-26T11:50:36;1.30;;;0.20;;
70558;SDS011;58108;48.094;11.838;2024-02-26T11:58:41;2.67;;;0.65;;
70558;SDS011;58108;48.094;11.838;2024-02-26T12:04:04;1.60;;;0.40;;
70558;SDS011;58108;48.094;11.838;2024-02-26T12:06:31;1.60;;;0.50;;
70558;SDS011;58108;48.094;11.838;2024-02-26T12:09:05;1.60;;;0.30;;
70558;SDS011;58108;48.094;11.838;2024-02-26T12:11:30;1.70;;;0.40;;
70558;SDS011;58108;48.094;11.838;2024-02-26T12:13:56;2.10;;;0.40;;
70558;SDS011;58108;48.094;11.838;2024-02-26T12:16:34;1.40;;;0.40;;
70558;SDS011;58108;48.094;11.838;2024-02-26T12:19:04;1.60;;;0.47;;
70558;SDS011;58108;48.094;11.838;2024-02-26T12:21:35;2.10;;;0.40;;
70558;SDS011;58108;48.094;11.838;2024-02-26T12:24:14;2.28;;;0.35;;
70558;SDS011;58108;48.094;11.838;2024-02-26T12:26:43;3.25;;;0.40;;
70558;SDS011;58108;48.094;11.838;2024-02-26T12:29:09;1.70;;;0.40;;
70558;SDS011;58108;48.094;11.838;2024-02-26T12:31:36;2.22;;;0.70;;
70558;SDS011;58108;48.094;11.838;2024-02-26T12:34:03;1.50;;;0.40;;
70558;SDS011;58108;48.094;11.838;2024-02-26T12:36:29;1.67;;;0.60;;
70558;SDS011;58108;48.094;11.838;2024-02-26T12:38:55;1.10;;;0.20;;
70558;SDS011;58108;48.094;11.838;2024-02-26T12:41:21;1.30;;;0.30;;
70558;SDS011;58108;48.094;11.838;2024-02-26T12:43:47;1.48;;;0.30;;
70558;SDS011;58108;48.094;11.838;2024-02-26T12:46:13;1.65;;;0.30;;
70558;SDS011;58108;48.094;11.838;2024-02-26T12:48:43;1.40;;;0.23;;
70558;SDS011;58108;48.094;11.838;2024-02-26T12:51:11;1.10;;;0.30;;
70558;SDS011;58108;48.094;11.838;2024-02-26T12:53:38;1.05;;;0.15;;
70558;SDS011;58108;48.094;11.838;2024-02-26T12:56:05;1.40;;;0.20;;
70558;SDS011;58108;48.094;11.838;2024-02-26T12:58:34;1.10;;;0.20;;
70558;SDS011;58108;48.094;11.838;2024-02-26T13:01:03;1.00;;;0.20;;
70558;SDS011;58108;48.094;11.838;2024-02-26T13:03:29;1.10;;;0.22;;
70558;SDS011;58108;48.094;11.838;2024-02-26T13:05:55;1.20;;;0.20;;
70558;SDS011;58108;48.094;11.838;2024-02-26T13:08:21;1.10;;;0.20;;
70558;SDS011;58108;48.094;11.838;2024-02-26T13:10:47;1.10;;;0.20;;
70558;SDS011;58108;48.094;11.838;2024-02-26T13:13:16;0.93;;;0.20;;
70558;SDS011;58108;48.094;11.838;2024-02-26T13:15:43;0.90;;;0.20;;
70558;SDS011;58108;48.094;11.838;2024-02-26T13:18:14;2.85;;;1.23;;
70558;SDS011;58108;48.094;11.838;2024-02-26T13:20:40;5.38;;;2.15;;
70558;SDS011;58108;48.094;11.838;2024-02-26T13:23:07;4.13;;;1.65;;
70558;SDS011;58108;48.094;11.838;2024-02-26T13:25:36;4.18;;;2.20;;
70558;SDS011;58108;48.094;11.838;2024-02-26T13:28:14;3.20;;;1.47;;
70558;SDS011;58108;48.094;11.838;2024-02-26T13:30:52;2.95;;;1.50;;
70558;SDS011;58108;48.094;11.838;2024-02-26T13:33:19;3.63;;;1.30;;
70558;SDS011;58108;48.094;11.838;2024-02-26T13:35:44;3.13;;;1.40;;
70558;SDS011;58108;48.094;11.838;2024-02-26T13:38:10;2.65;;;1.20;;
70558;SDS011;58108;48.094;11.838;2024-02-26T13:40:37;3.80;;;1.87;;
70558;SDS011;58108;48.094;11.838;2024-02-26T13:43:04;4.50;;;1.50;;
70558;SDS011;58108;48.094;11.838;2024-02-26T13:45:30;3.22;;;1.38;;
70558;SDS011;58108;48.094;11.838;2024-02-26T13:48:04;2.75;;;1.05;;
70558;SDS011;58108;48.094;11.838;2024-02-26T13:50:31;3.03;;;1.35;;
70558;SDS011;58108;48.094;11.838;2024-02-26T13:52:57;2.10;;;0.80;;
70558;SDS011;58108;48.094;11.838;2024-02-26T13:55:23;4.57;;;1.13;;
70558;SDS011;58108;48.094;11.838;2024-02-26T13:57:55;2.22;;;0.90;;
70558;SDS011;58108;48.094;11.838;2024-02-26T14:00:26;3.90;;;1.25;;
70558;SDS011;58108;48.094;11.838;2024-02-26T14:02:57;3.57;;;1.50;;
70558;SDS011;58108;48.094;11.838;2024-02-26T14:05:23;2.63;;;1.25;;
70558;SDS011;58108;48.094;11.838;2024-02-26T14:07:49;2.87;;;1.20;;
70558;SDS011;58108;48.094;11.838;2024-02-26T14:10:15;3.95;;;1.20;;
70558;SDS011;58108;48.094;11.838;2024-02-26T14:12:41;3.30;;;1.35;;
70558;SDS011;58108;48.094;11.838;2024-02-26T14:15:07;2.43;;;1.00;;
70558;SDS011;58108;48.094;11.838;2024-02-26T14:17:33;3.63;;;1.30;;
70558;SDS011;58108;48.094;11.838;2024-02-26T14:19:59;3.27;;;1.50;;
70558;SDS011;58108;48.094;11.838;2024-02-26T14:22:24;4.47;;;1.10;;
70558;SDS011;58108;48.094;11.838;2024-02-26T14:24:52;3.72;;;0.85;;
70558;SDS011;58108;48.094;11.838;2024-02-26T14:27:18;2.53;;;0.67;;
70558;SDS011;58108;48.094;11.838;2024-02-26T14:29:45;2.17;;;0.75;;
70558;SDS011;58108;48.094;11.838;2024-02-26T14:32:11;1.95;;;0.47;;
70558;SDS011;58108;48.094;11.838;2024-02-26T14:34:37;1.60;;;0.33;;
70558;SDS011;58108;48.094;11.838;2024-02-26T14:37:03;2.35;;;0.43;;
70558;SDS011;58108;48.094;11.838;2024-02-26T14:39:29;2.20;;;0.20;;